Time;durP1;ratioP1;P1;durP2;ratioP2;P2;SDS_P1;SDS_P2;PMS_P1;PMS_P2;Temp;Humidity;BMP_temperature;BMP_pressure;BME280_temperature;BME280_humidity;BME280_pressure;Samples;Min_cycle;Max_cycle;Signal;HPM_P1;HPM_P2
2023/03/03 00:00:56;;;;;;;29.05;14.95;;;1.50;99.90;;;;;;4959090;28;94014;-30
2023/03/03 00:03:24;;;;;;;28.83;14.85;;;1.40;99.90;;;;;;4958231;28;94611;-29
2023/03/03 00:05:51;;;;;;;37.70;17.20;;;1.40;99.90;;;;;;4958377;28;94654;-30
2023/03/03 00:08:18;;;;;;;27.00;16.30;;;1.50;99.90;;;;;;4958346;28;93015;-31
2023/03/03 00:10:44;;;;;;;23.15;14.98;;;1.40;99.90;;;;;;4958743;28;95151;-27
2023/03/03 00:13:18;;;;;;;26.05;16.70;;;1.50;99.90;;;;;;4957840;28;94218;-30
2023/03/03 00:15:45;;;;;;;25.67;17.13;;;1.40;99.90;;;;;;4959279;28;92256;-26
2023/03/03 00:18:35;;;;;;;43.90;16.17;;;1.40;99.90;;;;;;4958426;28;92358;-29
2023/03/03 00:21:21;;;;;;;30.38;14.50;;;1.40;99.90;;;;;;4952425;28;94986;-27
2023/03/03 00:23:46;;;;;;;21.92;14.95;;;1.30;99.90;;;;;;4958704;28;94615;-30
2023/03/03 00:26:17;;;;;;;21.05;16.60;;;1.30;99.90;;;;;;4958314;28;94779;-31
2023/03/03 00:28:51;;;;;;;27.98;15.40;;;1.20;99.90;;;;;;4957445;28;95055;-31
2023/03/03 00:31:30;;;;;;;22.88;15.05;;;1.20;99.90;;;;;;4957697;28;95724;-28
2023/03/03 00:34:01;;;;;;;23.42;15.18;;;1.20;99.90;;;;;;4957684;28;95844;-27
2023/03/03 00:36:36;;;;;;;23.52;13.85;;;1.20;99.90;;;;;;4958846;28;92234;-28
2023/03/03 00:39:21;;;;;;;28.58;15.43;;;1.20;99.90;;;;;;4957987;28;93081;-30
2023/03/03 00:41:47;;;;;;;47.03;17.23;;;1.30;99.90;;;;;;4958299;28;95376;-31
2023/03/03 00:44:44;;;;;;;40.80;16.52;;;1.30;99.90;;;;;;4957885;28;94238;-27
2023/03/03 00:47:22;;;;;;;24.90;16.48;;;1.30;99.90;;;;;;4957902;28;93443;-28
2023/03/03 00:49:48;;;;;;;26.23;13.82;;;1.20;99.90;;;;;;4957978;28;93446;-29
2023/03/03 00:52:17;;;;;;;26.23;15.57;;;1.20;99.90;;;;;;4958385;28;95313;-29
2023/03/03 00:54:43;;;;;;;19.83;14.18;;;1.20;99.90;;;;;;4957912;28;94227;-27
2023/03/03 00:57:11;;;;;;;27.77;14.55;;;1.20;99.90;;;;;;4957516;28;94352;-28
2023/03/03 00:59:37;;;;;;;26.63;12.93;;;1.20;99.90;;;;;;4957967;28;93951;-27
2023/03/03 01:02:03;;;;;;;51.58;15.70;;;1.20;99.90;;;;;;4957231;28;94795;-31
2023/03/03 01:04:28;;;;;;;21.85;13.07;;;1.20;99.90;;;;;;4957688;28;94780;-27
2023/03/03 01:06:54;;;;;;;23.35;12.27;;;1.20;99.90;;;;;;4956424;28;93352;-27
2023/03/03 01:09:20;;;;;;;29.52;16.60;;;1.20;99.90;;;;;;4957714;28;93368;-27
2023/03/03 01:11:46;;;;;;;60.08;14.07;;;1.20;99.90;;;;;;4957080;28;94987;-27
2023/03/03 01:14:11;;;;;;;18.27;9.88;;;1.20;99.90;;;;;;4957413;28;95074;-27
2023/03/03 01:16:37;;;;;;;18.05;10.55;;;1.20;99.90;;;;;;4958737;28;93123;-28
2023/03/03 01:19:03;;;;;;;14.80;9.77;;;1.20;99.90;;;;;;4956987;28;94670;-28
2023/03/03 01:21:28;;;;;;;17.50;10.88;;;1.20;99.90;;;;;;4957843;28;95584;-27
2023/03/03 01:23:54;;;;;;;28.10;11.63;;;1.10;99.90;;;;;;4956650;28;95803;-28
2023/03/03 01:26:20;;;;;;;18.50;10.15;;;1.10;99.90;;;;;;4957936;28;92954;-28
2023/03/03 01:28:45;;;;;;;32.63;13.75;;;1.10;99.90;;;;;;4957469;28;95148;-29
2023/03/03 01:31:11;;;;;;;79.85;16.77;;;1.10;99.90;;;;;;4956729;28;94518;-31
2023/03/03 01:33:37;;;;;;;55.45;14.07;;;1.10;99.90;;;;;;4955386;28;94632;-29
2023/03/03 01:36:03;;;;;;;74.82;19.38;;;1.10;99.90;;;;;;4956418;28;94629;-30
2023/03/03 01:38:29;;;;;;;67.80;14.35;;;1.00;99.90;;;;;;4957479;28;91873;-28
2023/03/03 01:40:57;;;;;;;42.05;14.73;;;1.10;99.90;;;;;;4956458;28;95137;-28
2023/03/03 01:43:26;;;;;;;118.10;22.37;;;1.10;99.90;;;;;;4939143;28;94980;-29
2023/03/03 01:45:52;;;;;;;110.63;22.65;;;1.10;99.90;;;;;;4955857;28;95263;-31
2023/03/03 01:48:31;;;;;;;216.98;27.90;;;1.10;99.90;;;;;;4939301;28;93529;-27
2023/03/03 01:51:04;;;;;;;120.38;21.83;;;1.10;99.90;;;;;;4956814;28;94787;-28
2023/03/03 01:53:35;;;;;;;178.43;24.23;;;1.10;99.90;;;;;;4956776;28;94896;-32
2023/03/03 01:56:04;;;;;;;175.65;27.20;;;1.10;99.90;;;;;;4956468;28;94229;-27
2023/03/03 01:58:44;;;;;;;119.05;25.25;;;1.10;99.90;;;;;;4956480;28;93502;-28
2023/03/03 02:01:14;;;;;;;52.45;17.52;;;1.10;99.90;;;;;;4956185;28;94865;-26
2023/03/03 02:03:42;;;;;;;145.05;30.95;;;1.10;99.90;;;;;;4956675;28;94930;-31
2023/03/03 02:06:12;;;;;;;166.80;26.37;;;1.10;99.90;;;;;;4956157;28;93192;-28
2023/03/03 02:08:54;;;;;;;117.05;23.08;;;1.10;99.90;;;;;;4956590;28;94316;-27
2023/03/03 02:11:23;;;;;;;247.55;36.30;;;1.10;99.90;;;;;;4956821;28;95772;-27
2023/03/03 02:13:49;;;;;;;147.88;25.52;;;1.10;99.90;;;;;;4956136;28;96260;-26
2023/03/03 02:16:15;;;;;;;162.70;22.35;;;1.20;99.90;;;;;;4956565;28;92646;-31
2023/03/03 02:18:41;;;;;;;123.00;19.65;;;1.20;99.90;;;;;;4956603;28;94606;-28
2023/03/03 02:21:18;;;;;;;205.25;27.73;;;1.20;99.90;;;;;;4955787;28;94630;-27
2023/03/03 02:23:46;;;;;;;117.90;24.95;;;1.20;99.90;;;;;;4956870;28;94143;-31
2023/03/03 02:26:14;;;;;;;;;;;1.20;99.90;;;;;;4956998;28;94116;-29
2023/03/03 02:28:40;;;;;;;80.10;17.42;;;1.20;99.90;;;;;;4958605;28;93052;-28
2023/03/03 02:31:11;;;;;;;109.03;21.58;;;1.20;99.90;;;;;;4955667;28;94603;-30
2023/03/03 02:33:38;;;;;;;129.70;19.20;;;1.20;99.90;;;;;;4956439;28;94995;-29
2023/03/03 02:36:04;;;;;;;70.57;16.25;;;1.20;99.90;;;;;;4955585;28;94298;-26
2023/03/03 02:38:38;;;;;;;182.25;22.98;;;1.20;99.90;;;;;;4956252;28;93453;-28
2023/03/03 02:41:10;;;;;;;89.43;18.60;;;1.20;99.90;;;;;;4955503;28;94167;-29
2023/03/03 02:43:49;;;;;;;94.95;17.92;;;1.20;99.90;;;;;;4956343;28;94228;-26
2023/03/03 02:46:15;;;;;;;96.00;17.30;;;1.20;99.90;;;;;;4957001;28;92176;-27
2023/03/03 02:48:40;;;;;;;108.68;22.05;;;1.20;99.90;;;;;;4955926;28;93430;-28
2023/03/03 02:51:06;;;;;;;218.40;27.25;;;1.20;99.90;;;;;;4955190;28;95122;-30
2023/03/03 02:53:32;;;;;;;240.70;33.00;;;1.20;99.90;;;;;;4955985;28;94191;-28
2023/03/03 02:55:57;;;;;;;110.78;20.95;;;1.20;99.90;;;;;;4956327;28;93159;-30
2023/03/03 02:58:23;;;;;;;204.38;29.83;;;1.20;99.90;;;;;;4956418;28;93882;-27
2023/03/03 03:00:49;;;;;;;166.55;21.80;;;1.20;99.90;;;;;;4955032;28;96023;-26
2023/03/03 03:03:14;;;;;;;71.50;14.88;;;1.20;99.90;;;;;;4955781;28;96056;-29
2023/03/03 03:05:40;;;;;;;127.63;20.73;;;1.30;99.90;;;;;;4955913;28;93042;-28
2023/03/03 03:08:06;;;;;;;230.20;29.00;;;1.20;99.90;;;;;;4955700;28;93677;-29
2023/03/03 03:10:31;;;;;;;77.60;15.65;;;1.20;99.90;;;;;;4955765;28;94160;-28
2023/03/03 03:12:57;;;;;;;145.40;23.10;;;1.20;99.90;;;;;;4955727;28;94656;-30
2023/03/03 03:15:22;;;;;;;249.30;28.90;;;1.20;99.90;;;;;;4955548;28;94386;-29
2023/03/03 03:17:48;;;;;;;242.75;34.30;;;1.20;99.90;;;;;;4955311;28;93069;-32
2023/03/03 03:20:14;;;;;;;79.50;16.98;;;1.20;99.90;;;;;;4956208;28;94287;-30
2023/03/03 03:22:40;;;;;;;290.38;37.88;;;1.30;99.90;;;;;;4955390;28;94921;-30
2023/03/03 03:25:06;;;;;;;189.70;25.55;;;1.30;99.90;;;;;;4955880;28;94124;-28
2023/03/03 03:27:32;;;;;;;19.85;11.00;;;1.30;99.90;;;;;;4937684;28;94432;-29
2023/03/03 03:29:57;;;;;;;190.07;29.58;;;1.30;99.90;;;;;;4955161;28;94465;-31
2023/03/03 03:32:23;;;;;;;117.63;19.40;;;1.30;99.90;;;;;;4955650;28;94766;-28
2023/03/03 03:34:49;;;;;;;160.63;25.55;;;1.30;99.90;;;;;;4955284;28;94746;-28
2023/03/03 03:37:14;;;;;;;80.82;19.50;;;1.40;99.90;;;;;;4955787;28;93295;-29
2023/03/03 03:39:40;;;;;;;85.90;19.52;;;1.30;99.90;;;;;;4955188;28;94572;-26
2023/03/03 03:42:05;;;;;;;147.45;22.33;;;1.30;99.90;;;;;;4955925;28;94459;-32
2023/03/03 03:44:31;;;;;;;214.25;31.58;;;1.40;99.90;;;;;;4955632;28;93913;-28
2023/03/03 03:46:57;;;;;;;151.80;24.88;;;1.40;99.90;;;;;;4955551;28;94916;-32
2023/03/03 03:49:23;;;;;;;100.97;22.55;;;1.40;99.90;;;;;;4955189;28;95464;-29
2023/03/03 03:51:48;;;;;;;109.32;22.30;;;1.40;99.90;;;;;;4954667;28;94391;-28
2023/03/03 03:54:14;;;;;;;50.35;14.82;;;1.40;99.90;;;;;;4954802;28;94421;-30
2023/03/03 03:56:39;;;;;;;146.60;23.08;;;1.40;99.90;;;;;;4955399;28;92151;-29
2023/03/03 03:59:06;;;;;;;141.73;24.50;;;1.40;99.90;;;;;;4955213;28;93214;-29
2023/03/03 04:01:32;;;;;;;163.60;23.38;;;1.40;99.90;;;;;;4955841;28;94604;-29
2023/03/03 04:03:57;;;;;;;135.15;22.08;;;1.50;99.90;;;;;;4958840;28;94831;-27
2023/03/03 04:06:23;;;;;;;281.42;37.00;;;1.50;99.90;;;;;;4958899;28;94036;-28
2023/03/03 04:08:49;;;;;;;233.13;31.27;;;1.50;99.90;;;;;;4958321;28;95019;-28
2023/03/03 04:11:15;;;;;;;238.90;34.80;;;1.50;99.90;;;;;;4958454;28;94628;-28
2023/03/03 04:13:41;;;;;;;46.22;14.15;;;1.50;99.90;;;;;;4957736;28;94308;-27
2023/03/03 04:16:06;;;;;;;107.57;18.65;;;1.50;99.90;;;;;;4958025;28;92501;-28
2023/03/03 04:18:32;;;;;;;289.10;40.05;;;1.50;99.90;;;;;;4958643;28;95341;-27
2023/03/03 04:20:57;;;;;;;194.63;28.63;;;1.60;99.90;;;;;;4957346;28;95015;-27
2023/03/03 04:23:23;;;;;;;196.68;28.20;;;1.60;99.90;;;;;;4959027;28;92656;-27
2023/03/03 04:25:49;;;;;;;214.73;25.67;;;1.60;99.90;;;;;;4957910;28;94168;-28
2023/03/03 04:28:15;;;;;;;164.85;23.60;;;1.60;99.90;;;;;;4957964;28;95113;-30
2023/03/03 04:30:41;;;;;;;197.98;23.63;;;1.60;99.90;;;;;;4958300;28;94474;-30
2023/03/03 04:33:06;;;;;;;208.15;26.05;;;1.70;99.90;;;;;;4958913;28;93389;-30
2023/03/03 04:35:32;;;;;;;357.25;34.58;;;1.70;99.90;;;;;;4958176;28;92847;-28
2023/03/03 04:37:58;;;;;;;161.57;21.33;;;1.70;99.90;;;;;;4956561;28;97299;-30
2023/03/03 04:40:23;;;;;;;196.60;25.75;;;1.70;99.90;;;;;;4957969;28;95366;-27
2023/03/03 04:42:49;;;;;;;117.32;21.58;;;1.70;99.90;;;;;;4958278;28;92339;-27
2023/03/03 04:45:15;;;;;;;98.07;18.48;;;1.70;99.90;;;;;;4958250;28;92205;-28
2023/03/03 04:47:41;;;;;;;217.02;25.45;;;1.70;99.90;;;;;;4958140;28;95638;-27
2023/03/03 04:50:08;;;;;;;134.15;17.45;;;1.70;99.90;;;;;;4939326;28;95863;-27
2023/03/03 04:52:34;;;;;;;189.52;23.10;;;1.70;99.90;;;;;;4957809;28;93365;-30
2023/03/03 04:54:59;;;;;;;73.95;19.92;;;1.70;99.90;;;;;;4940893;28;91887;-29
2023/03/03 04:57:25;;;;;;;200.20;25.95;;;1.70;99.90;;;;;;4957815;28;95060;-29
2023/03/03 04:59:50;;;;;;;141.35;21.05;;;1.70;99.90;;;;;;4957685;28;94801;-31
2023/03/03 05:02:17;;;;;;;213.07;30.40;;;1.70;99.90;;;;;;4956454;28;95393;-31
2023/03/03 05:04:42;;;;;;;272.65;31.92;;;1.80;99.90;;;;;;4957918;28;94039;-27
2023/03/03 05:07:08;;;;;;;135.73;22.75;;;1.80;99.90;;;;;;4957628;28;94634;-28
2023/03/03 05:09:34;;;;;;;142.15;22.55;;;1.70;99.90;;;;;;4957086;28;94127;-29
2023/03/03 05:12:00;;;;;;;255.90;31.75;;;1.70;99.90;;;;;;4957776;28;94311;-29
2023/03/03 05:14:26;;;;;;;131.32;16.25;;;1.90;99.90;;;;;;4956475;28;93606;-31
2023/03/03 05:16:52;;;;;;;106.57;19.02;;;1.90;99.90;;;;;;4939612;28;94667;-27
2023/03/03 05:19:18;;;;;;;193.35;29.85;;;1.80;99.90;;;;;;4958130;28;94902;-30
2023/03/03 05:21:43;;;;;;;184.27;24.80;;;1.80;99.90;;;;;;4957764;28;94962;-26
2023/03/03 05:24:11;;;;;;;34.13;11.90;;;1.80;99.90;;;;;;4957159;28;93536;-31
2023/03/03 05:26:37;;;;;;;267.55;34.58;;;1.80;99.90;;;;;;4957242;28;94560;-28
2023/03/03 05:29:02;;;;;;;25.92;12.82;;;1.80;99.90;;;;;;4955867;28;94928;-28
2023/03/03 05:31:28;;;;;;;93.75;17.65;;;1.80;99.90;;;;;;4957586;28;92802;-28
2023/03/03 05:33:54;;;;;;;40.05;13.35;;;1.80;99.90;;;;;;4956800;28;94245;-30
2023/03/03 05:36:19;;;;;;;31.98;11.63;;;1.80;99.90;;;;;;4957491;28;94582;-27
2023/03/03 05:38:45;;;;;;;108.32;21.05;;;1.80;99.90;;;;;;4957024;28;94943;-26
2023/03/03 05:41:10;;;;;;;32.35;12.00;;;1.80;99.90;;;;;;4956558;28;93524;-32
2023/03/03 05:43:36;;;;;;;67.43;13.82;;;1.80;99.90;;;;;;4958196;28;92829;-27
2023/03/03 05:46:02;;;;;;;225.57;32.00;;;1.80;99.90;;;;;;4956339;28;94264;-28
2023/03/03 05:48:28;;;;;;;29.67;12.10;;;1.80;99.90;;;;;;4957089;28;94181;-28
2023/03/03 05:50:56;;;;;;;29.02;11.90;;;1.80;99.90;;;;;;4956117;28;95263;-30
2023/03/03 05:53:22;;;;;;;;;;;1.80;99.90;;;;;;4956932;28;93176;-28
2023/03/03 05:55:48;;;;;;;20.25;10.15;;;1.80;99.90;;;;;;4958754;28;94379;-32
2023/03/03 05:58:13;;;;;;;76.55;18.35;;;1.80;99.90;;;;;;4956939;28;94532;-28
2023/03/03 06:00:39;;;;;;;27.45;12.52;;;1.80;99.90;;;;;;4956853;28;92196;-28
2023/03/03 06:03:05;;;;;;;22.42;14.27;;;1.80;99.90;;;;;;4956112;28;94026;-29
2023/03/03 06:05:30;;;;;;;23.67;12.82;;;1.90;99.90;;;;;;4956233;28;95741;-28
2023/03/03 06:07:56;;;;;;;25.05;12.98;;;1.90;99.90;;;;;;4956691;28;95270;-28
2023/03/03 06:10:22;;;;;;;22.60;11.18;;;1.90;99.90;;;;;;4957075;28;93658;-28
2023/03/03 06:12:47;;;;;;;24.25;12.15;;;1.90;99.90;;;;;;4956776;28;93437;-31
2023/03/03 06:15:13;;;;;;;27.75;12.48;;;1.90;99.90;;;;;;4938026;28;95034;-28
2023/03/03 06:17:38;;;;;;;19.95;11.30;;;1.90;99.90;;;;;;4956692;28;95493;-32
2023/03/03 06:20:05;;;;;;;87.15;16.50;;;1.90;99.90;;;;;;4957057;28;92331;-28
2023/03/03 06:22:31;;;;;;;24.67;13.43;;;1.90;99.90;;;;;;4956151;28;94406;-29
2023/03/03 06:24:56;;;;;;;28.13;13.52;;;1.90;99.90;;;;;;4955561;28;95168;-26
2023/03/03 06:27:22;;;;;;;108.15;22.05;;;2.00;99.90;;;;;;4956433;28;94255;-27
2023/03/03 06:29:48;;;;;;;49.38;16.48;;;1.90;99.90;;;;;;4956601;28;92685;-29
2023/03/03 06:32:13;;;;;;;29.75;14.57;;;1.90;99.90;;;;;;4957290;28;93955;-27
2023/03/03 06:34:39;;;;;;;28.15;13.25;;;2.00;99.90;;;;;;4955876;28;95200;-28
2023/03/03 06:37:05;;;;;;;67.03;14.75;;;2.00;99.90;;;;;;4956642;28;93707;-27
2023/03/03 06:39:30;;;;;;;26.48;14.48;;;2.00;99.90;;;;;;4955850;28;95864;-29
2023/03/03 06:41:56;;;;;;;22.23;11.35;;;2.00;99.90;;;;;;4956205;28;94303;-31
2023/03/03 06:44:22;;;;;;;42.22;13.77;;;2.00;99.90;;;;;;4955915;28;94505;-28
2023/03/03 06:46:47;;;;;;;16.42;11.25;;;2.00;99.90;;;;;;4955459;28;95432;-31
2023/03/03 06:49:13;;;;;;;54.78;15.68;;;2.00;99.90;;;;;;4939181;28;95169;-28
2023/03/03 06:51:39;;;;;;;30.02;15.40;;;2.00;99.90;;;;;;4955738;28;92228;-30
2023/03/03 06:54:19;;;;;;;25.10;14.60;;;2.10;99.90;;;;;;4938454;28;94536;-30
2023/03/03 06:56:46;;;;;;;20.65;11.70;;;2.10;99.90;;;;;;4956649;28;94590;-28
2023/03/03 06:59:17;;;;;;;20.80;12.73;;;2.10;99.90;;;;;;4956189;28;94114;-28
2023/03/03 07:01:44;;;;;;;22.02;13.35;;;2.10;99.90;;;;;;4955604;28;93172;-30
2023/03/03 07:04:27;;;;;;;28.88;16.00;;;2.10;99.90;;;;;;4955476;28;95395;-28
2023/03/03 07:06:54;;;;;;;26.33;14.80;;;2.10;99.90;;;;;;4954794;28;95123;-28
2023/03/03 07:09:29;;;;;;;23.17;13.55;;;2.10;99.90;;;;;;4956316;28;92660;-29
2023/03/03 07:12:05;;;;;;;29.23;16.02;;;2.20;99.90;;;;;;4954940;28;92434;-28
2023/03/03 07:14:33;;;;;;;23.00;12.93;;;2.20;99.90;;;;;;4955790;28;96490;-27
2023/03/03 07:17:04;;;;;;;33.88;13.13;;;2.10;99.90;;;;;;4955678;28;95269;-29
2023/03/03 07:19:34;;;;;;;20.67;12.30;;;2.10;99.90;;;;;;4956392;28;93807;-32
2023/03/03 07:22:29;;;;;;;25.65;12.98;;;2.20;99.90;;;;;;4955478;28;91910;-29
2023/03/03 07:25:00;;;;;;;37.42;13.68;;;2.20;99.90;;;;;;4955697;28;94942;-28
2023/03/03 07:27:28;;;;;;;20.00;11.70;;;2.30;99.90;;;;;;4955369;28;94349;-27
2023/03/03 07:30:23;;;;;;;25.55;12.00;;;2.30;99.90;;;;;;4955277;28;94766;-30
2023/03/03 07:32:52;;;;;;;27.38;14.73;;;2.30;99.90;;;;;;4949911;28;93212;-29
2023/03/03 07:35:37;;;;;;;20.35;11.63;;;2.30;99.90;;;;;;4955158;28;94080;-30
2023/03/03 07:38:15;;;;;;;23.65;13.35;;;2.30;99.90;;;;;;4958040;28;94640;-29
2023/03/03 07:40:52;;;;;;;25.60;12.93;;;2.40;99.90;;;;;;4959625;28;92243;-26
2023/03/03 07:43:27;;;;;;;25.85;11.82;;;2.40;99.90;;;;;;4959429;28;92615;-29
2023/03/03 07:46:17;;;;;;;23.98;13.45;;;2.50;99.90;;;;;;4956787;28;94742;-26
2023/03/03 07:48:43;;;;;;;26.45;12.32;;;2.50;99.90;;;;;;4948035;28;96359;-28
2023/03/03 07:51:21;;;;;;;30.05;11.73;;;2.50;99.90;;;;;;4958806;28;92537;-32
2023/03/03 07:53:47;;;;;;;16.50;12.18;;;2.60;99.90;;;;;;4959262;28;94045;-31
2023/03/03 07:56:33;;;;;;;21.17;13.75;;;2.60;99.90;;;;;;4958136;28;95326;-28
2023/03/03 07:59:01;;;;;;;41.38;12.88;;;2.70;99.90;;;;;;4951575;28;95375;-30
2023/03/03 08:01:42;;;;;;;30.15;14.07;;;2.80;99.90;;;;;;4958435;28;92148;-29
2023/03/03 08:04:17;;;;;;;25.80;12.05;;;2.80;99.90;;;;;;4940224;28;94791;-28
2023/03/03 08:06:48;;;;;;;24.42;12.93;;;2.90;99.90;;;;;;4940529;28;96227;-32
2023/03/03 08:09:17;;;;;;;22.30;11.95;;;2.90;99.90;;;;;;4958439;28;95101;-29
2023/03/03 08:11:48;;;;;;;14.95;10.80;;;3.00;99.90;;;;;;4958926;28;93533;-29
2023/03/03 08:14:17;;;;;;;22.60;12.70;;;3.10;99.90;;;;;;4959130;28;93576;-27
2023/03/03 08:16:43;;;;;;;18.10;12.77;;;3.10;99.90;;;;;;4957836;28;94907;-29
2023/03/03 08:19:12;;;;;;;24.33;12.23;;;3.20;99.90;;;;;;4957994;28;94453;-30
2023/03/03 08:21:38;;;;;;;27.67;11.75;;;3.20;99.90;;;;;;4940221;28;95107;-26
2023/03/03 08:24:03;;;;;;;18.92;11.80;;;3.20;99.90;;;;;;4957707;28;94603;-28
2023/03/03 08:26:30;;;;;;;23.70;13.82;;;3.30;99.90;;;;;;4958610;28;93497;-29
2023/03/03 08:28:55;;;;;;;20.02;11.85;;;3.30;99.90;;;;;;4955414;28;94590;-28
2023/03/03 08:31:21;;;;;;;19.90;13.43;;;3.30;99.90;;;;;;4956050;28;92613;-28
2023/03/03 08:33:47;;;;;;;21.25;13.15;;;3.40;99.90;;;;;;4956076;28;94510;-30
2023/03/03 08:36:13;;;;;;;17.80;11.55;;;3.40;99.90;;;;;;4955850;28;96342;-26
2023/03/03 08:38:39;;;;;;;19.63;9.65;;;3.60;99.90;;;;;;4956154;28;94897;-30
2023/03/03 08:41:05;;;;;;;14.50;10.13;;;3.80;99.90;;;;;;4956422;28;93308;-28
2023/03/03 08:43:31;;;;;;;17.50;10.52;;;3.90;99.90;;;;;;4938433;28;94205;-33
2023/03/03 08:46:02;;;;;;;24.42;12.35;;;3.90;99.90;;;;;;4956058;28;95296;-30
2023/03/03 08:48:31;;;;;;;15.48;11.70;;;3.90;99.90;;;;;;4920433;28;97004;-31
2023/03/03 08:50:57;;;;;;;17.05;9.85;;;4.00;99.90;;;;;;4956410;28;94280;-28
2023/03/03 08:53:24;;;;;;;21.75;9.93;;;4.10;99.90;;;;;;4956157;28;93041;-30
2023/03/03 08:55:49;;;;;;;18.23;9.80;;;4.10;99.90;;;;;;4956290;28;95311;-31
2023/03/03 08:58:17;;;;;;;17.45;9.95;;;4.00;99.90;;;;;;4956264;28;94597;-29
2023/03/03 09:00:43;;;;;;;17.42;8.93;;;4.10;99.90;;;;;;4956359;28;92977;-29
2023/03/03 09:03:09;;;;;;;13.02;10.63;;;4.10;99.90;;;;;;4955838;28;94421;-32
2023/03/03 09:05:36;;;;;;;14.65;9.05;;;4.10;99.90;;;;;;4954615;28;93901;-29
2023/03/03 09:08:03;;;;;;;11.93;9.03;;;4.20;99.90;;;;;;4953940;28;95440;-28
2023/03/03 09:10:30;;;;;;;13.15;9.18;;;4.30;99.90;;;;;;4955579;28;95381;-31
2023/03/03 09:13:05;;;;;;;20.03;8.37;;;4.30;99.90;;;;;;4956015;28;94138;-29
2023/03/03 09:15:33;;;;;;;21.55;10.75;;;4.40;99.90;;;;;;4955384;28;94914;-28
2023/03/03 09:18:16;;;;;;;12.27;7.65;;;4.40;99.90;;;;;;4954779;28;94652;-29
2023/03/03 09:20:50;;;;;;;11.90;7.82;;;4.50;99.90;;;;;;4956421;28;92569;-28
2023/03/03 09:23:30;;;;;;;9.23;7.78;;;4.30;99.90;;;;;;4955275;28;94759;-28
2023/03/03 09:25:58;;;;;;;13.10;7.63;;;4.50;99.90;;;;;;4955291;28;94801;-27
2023/03/03 09:28:31;;;;;;;17.25;7.45;;;4.50;99.90;;;;;;4956000;28;94149;-28
2023/03/03 09:31:01;;;;;;;9.48;6.60;;;4.50;99.90;;;;;;4955632;28;93703;-28
2023/03/03 09:33:39;;;;;;;11.35;8.18;;;4.60;99.90;;;;;;4955713;28;94672;-30
2023/03/03 09:36:43;;;;;;;8.52;5.90;;;4.80;99.90;;;;;;4945849;28;96465;-27
2023/03/03 09:39:23;;;;;;;9.55;6.43;;;4.80;99.90;;;;;;4964797;28;95141;-31
2023/03/03 09:42:11;;;;;;;10.20;6.18;;;4.90;99.90;;;;;;4938333;28;93262;-31
2023/03/03 09:45:06;;;;;;;9.48;7.65;;;4.80;99.90;;;;;;4955844;28;93570;-29
2023/03/03 09:48:03;;;;;;;11.70;6.07;;;4.90;99.90;;;;;;4938078;28;94326;-28
2023/03/03 09:50:58;;;;;;;8.85;6.35;;;4.80;99.90;;;;;;4955976;28;95708;-29
2023/03/03 09:53:51;;;;;;;12.18;5.75;;;4.80;99.90;;;;;;4945620;28;92566;-29
2023/03/03 09:56:45;;;;;;;12.68;8.65;;;4.90;99.90;;;;;;4956394;28;92733;-30
2023/03/03 09:59:29;;;;;;;14.95;7.47;;;4.90;99.90;;;;;;4955098;28;94890;-31
2023/03/03 10:02:11;;;;;;;8.27;6.68;;;4.80;99.90;;;;;;4951220;28;94371;-29
2023/03/03 10:05:01;;;;;;;8.75;6.10;;;4.80;99.90;;;;;;4957882;28;93946;-30
2023/03/03 10:07:49;;;;;;;9.60;5.43;;;4.90;99.90;;;;;;4988421;22;93058;-29
2023/03/03 10:10:47;;;;;;;10.38;6.88;;;4.90;99.90;;;;;;4955546;28;94677;-31
2023/03/03 10:13:16;;;;;;;9.15;6.60;;;4.90;99.90;;;;;;4954592;28;95428;-29
2023/03/03 10:16:00;;;;;;;;;;;4.90;99.90;;;;;;4956957;28;95058;-27
2023/03/03 10:18:52;;;;;;;9.38;7.25;;;4.90;99.90;;;;;;4956772;28;93470;-27
2023/03/03 10:21:41;;;;;;;21.27;8.45;;;4.90;99.90;;;;;;4956189;28;94758;-30
2023/03/03 10:24:30;;;;;;;14.93;7.90;;;4.90;99.90;;;;;;4955818;28;94888;-29
2023/03/03 10:27:37;;;;;;;14.80;8.52;;;4.90;99.90;;;;;;4956046;28;92957;-27
2023/03/03 10:30:13;;;;;;;10.45;7.88;;;4.90;99.90;;;;;;4874265;28;93634;-29
2023/03/03 10:32:44;;;;;;;13.70;7.82;;;4.90;99.90;;;;;;4942100;28;96574;-28
2023/03/03 10:35:31;;;;;;;10.00;6.03;;;4.90;99.90;;;;;;4954373;28;95496;-30
2023/03/03 10:38:05;;;;;;;11.07;6.95;;;4.90;99.90;;;;;;4955148;28;94129;-30
2023/03/03 10:40:39;;;;;;;16.02;8.45;;;4.80;99.90;;;;;;4954702;28;93181;-30
2023/03/03 10:43:15;;;;;;;9.27;6.82;;;4.80;99.90;;;;;;4954742;28;95935;-30
2023/03/03 10:45:44;;;;;;;15.73;8.13;;;4.80;99.90;;;;;;4955059;28;94554;-28
2023/03/03 10:48:27;;;;;;;9.13;5.97;;;4.80;99.90;;;;;;4955030;28;94054;-26
2023/03/03 10:51:12;;;;;;;12.95;8.55;;;4.90;99.90;;;;;;4955053;28;92473;-27
2023/03/03 10:54:14;;;;;;;11.02;6.78;;;4.90;99.90;;;;;;4954148;28;94752;-29
2023/03/03 10:56:49;;;;;;;12.27;7.18;;;5.10;99.90;;;;;;4954834;28;94297;-28
2023/03/03 10:59:39;;;;;;;10.85;6.70;;;5.10;99.90;;;;;;4954750;28;94632;-31
2023/03/03 11:02:24;;;;;;;10.73;8.50;;;5.20;99.90;;;;;;4936972;28;93530;-28
2023/03/03 11:05:30;;;;;;;10.82;7.38;;;5.30;99.90;;;;;;4954309;28;94477;-32
2023/03/03 11:08:07;;;;;;;13.77;7.10;;;5.40;99.90;;;;;;4953626;28;95199;-27
2023/03/03 11:10:45;;;;;;;17.73;9.73;;;5.50;99.90;;;;;;4954770;28;92706;-28
2023/03/03 11:13:49;;;;;;;12.52;8.82;;;5.50;99.90;;;;;;4960591;28;92372;-33
2023/03/03 11:16:24;;;;;;;12.93;8.93;;;5.60;99.90;;;;;;4957020;28;94934;-29
2023/03/03 11:19:14;;;;;;;12.35;8.20;;;5.70;99.90;;;;;;4959592;28;95698;-31
2023/03/03 11:21:51;;;;;;;18.27;6.78;;;5.80;99.90;;;;;;4960530;28;94898;-28
2023/03/03 11:24:58;;;;;;;9.13;6.78;;;5.80;99.90;;;;;;4949609;28;93532;-28
2023/03/03 11:27:24;;;;;;;7.35;5.78;;;5.90;99.90;;;;;;4963476;28;95959;-29
2023/03/03 11:30:07;;;;;;;8.13;6.15;;;6.00;99.90;;;;;;4959216;28;96054;-30
2023/03/03 11:32:46;;;;;;;8.80;5.55;;;6.00;99.90;;;;;;4961301;28;94168;-29
2023/03/03 11:35:23;;;;;;;;;;;6.10;99.90;;;;;;4960312;28;93490;-31
2023/03/03 11:37:56;;;;;;;8.77;6.33;;;6.20;99.90;;;;;;4958108;28;93934;-27
2023/03/03 11:40:50;;;;;;;19.55;6.40;;;6.20;99.90;;;;;;4960741;28;95911;-29
2023/03/03 11:43:24;;;;;;;10.98;6.22;;;6.20;99.90;;;;;;5036388;22;93678;-32
2023/03/03 11:45:55;;;;;;;9.52;5.78;;;6.30;99.90;;;;;;4946003;28;91870;-27
2023/03/03 11:48:48;;;;;;;12.80;6.03;;;6.40;99.90;;;;;;4961426;28;94700;-31
2023/03/03 11:51:23;;;;;;;12.18;5.60;;;6.40;99.90;;;;;;4961597;28;93988;-29
2023/03/03 11:53:57;;;;;;;7.82;5.20;;;6.50;99.90;;;;;;4962545;28;95191;-27
2023/03/03 11:56:43;;;;;;;7.90;5.53;;;6.60;99.90;;;;;;4962213;28;92169;-29
2023/03/03 11:59:24;;;;;;;9.80;5.15;;;6.70;99.90;;;;;;4962053;28;95255;-32
2023/03/03 12:02:08;;;;;;;7.90;5.72;;;6.80;99.90;;;;;;4944803;28;94501;-30
2023/03/03 12:04:48;;;;;;;5.50;4.63;;;6.90;99.90;;;;;;4962828;28;92911;-29
2023/03/03 12:07:31;;;;;;;7.03;4.65;;;7.00;99.90;;;;;;4962232;28;93342;-31
2023/03/03 12:10:11;;;;;;;9.35;6.50;;;7.00;99.90;;;;;;4961938;28;94745;-29
2023/03/03 12:12:43;;;;;;;8.55;5.13;;;7.10;99.90;;;;;;4962890;28;94739;-28
2023/03/03 12:15:11;;;;;;;4.57;4.10;;;7.10;99.90;;;;;;4962748;28;94788;-28
2023/03/03 12:17:57;;;;;;;4.22;3.83;;;7.10;99.90;;;;;;4962582;28;94363;-30
2023/03/03 12:20:38;;;;;;;7.70;6.25;;;7.10;99.90;;;;;;4960745;28;96074;-27
2023/03/03 12:23:52;;;;;;;4.20;3.53;;;7.30;99.90;;;;;;4960447;28;95428;-29
2023/03/03 12:26:29;;;;;;;8.23;3.58;;;7.30;99.90;;;;;;4958940;28;92265;-28
2023/03/03 12:29:05;;;;;;;11.10;3.85;;;7.30;99.90;;;;;;4958994;28;93599;-32
2023/03/03 12:31:43;;;;;;;3.92;3.13;;;7.30;99.90;;;;;;4958716;28;95155;-30
2023/03/03 12:34:26;;;;;;;7.73;3.30;;;7.30;99.90;;;;;;4958859;28;94391;-29
2023/03/03 12:37:33;;;;;;;6.07;2.58;;;7.40;99.90;;;;;;4959618;28;94526;-32
2023/03/03 12:40:15;;;;;;;2.47;2.28;;;7.40;99.90;;;;;;4958396;28;93623;-31
2023/03/03 12:42:41;;;;;;;4.55;3.42;;;7.40;99.90;;;;;;4958474;28;94848;-30
2023/03/03 12:45:47;;;;;;;7.00;3.53;;;7.40;99.90;;;;;;4957624;28;94001;-34
2023/03/03 12:48:40;;;;;;;5.97;2.78;;;7.40;99.90;;;;;;4958607;28;94411;-29
2023/03/03 12:51:17;;;;;;;6.43;3.13;;;7.30;99.90;;;;;;4940457;28;94107;-28
2023/03/03 12:53:56;;;;;;;3.80;3.42;;;7.40;99.90;;;;;;4957887;28;94865;-30
2023/03/03 12:56:32;;;;;;;5.07;3.65;;;7.30;99.90;;;;;;4957788;28;95224;-29
2023/03/03 12:59:17;;;;;;;3.92;2.88;;;7.30;99.90;;;;;;4958885;28;94548;-29
2023/03/03 13:01:52;;;;;;;3.33;3.03;;;7.40;99.90;;;;;;4958494;28;93905;-32
2023/03/03 13:04:36;;;;;;;8.93;3.58;;;7.50;99.90;;;;;;4957530;28;93610;-32
2023/03/03 13:07:21;;;;;;;5.35;3.38;;;7.70;99.90;;;;;;4940961;28;93381;-29